Time;durP1;ratioP1;P1;durP2;ratioP2;P2;SDS_P1;SDS_P2;PMS_P1;PMS_P2;Temp;Humidity;BMP_temperature;BMP_pressure;BME280_temperature;BME280_humidity;BME280_pressure;Samples;Min_cycle;Max_cycle;Signal;HPM_P1;HPM_P2
2021/12/30 00:01:17;;;;;;;54.72;31.65;;;;;;;;;;5023413;28;20196;-62
2021/12/30 00:03:43;;;;;;;61.60;33.83;;;;;;;;;;5024640;28;20242;-57
2021/12/30 00:06:09;;;;;;;52.92;31.50;;;;;;;;;;5018551;28;20603;-58
2021/12/30 00:08:34;;;;;;;48.75;29.85;;;;;;;;;;5014777;28;20193;-58
2021/12/30 00:11:00;;;;;;;26.55;16.33;;;;;;;;;;5016638;28;20171;-56
2021/12/30 00:13:26;;;;;;;32.20;20.48;;;;;;;;;;5018211;28;20186;-57
2021/12/30 00:15:52;;;;;;;32.95;19.30;;;;;;;;;;5018541;28;20845;-57
2021/12/30 00:18:18;;;;;;;23.75;15.23;;;;;;;;;;5015526;28;20711;-58
2021/12/30 00:20:43;;;;;;;21.65;13.25;;;;;;;;;;5009677;28;20185;-56
2021/12/30 00:23:10;;;;;;;17.80;12.20;;;;;;;;;;5016092;28;20274;-57
2021/12/30 00:25:40;;;;;;;11.13;6.65;;;;;;;;;;5020137;28;20841;-58
2021/12/30 00:28:07;;;;;;;4.68;4.03;;;;;;;;;;5014030;28;20648;-57
2021/12/30 00:30:32;;;;;;;2.53;2.33;;;;;;;;;;5013827;28;20240;-59
2021/12/30 00:33:00;;;;;;;2.17;1.88;;;;;;;;;;5016860;28;20182;-56
2021/12/30 00:35:25;;;;;;;2.40;2.20;;;;;;;;;;5020282;28;20209;-56
2021/12/30 00:37:50;;;;;;;2.67;2.47;;;;;;;;;;5017261;28;20664;-56
2021/12/30 00:40:16;;;;;;;3.05;2.40;;;;;;;;;;5019695;28;20241;-57
2021/12/30 00:42:41;;;;;;;2.28;2.17;;;;;;;;;;5015082;28;20730;-56
2021/12/30 00:45:06;;;;;;;2.10;2.00;;;;;;;;;;5011169;28;20203;-56
2021/12/30 00:47:32;;;;;;;1.98;1.85;;;;;;;;;;5019333;28;20182;-56
2021/12/30 00:49:57;;;;;;;2.00;1.90;;;;;;;;;;5018837;28;20184;-57
2021/12/30 00:52:22;;;;;;;2.95;1.88;;;;;;;;;;5016153;28;20263;-57
2021/12/30 00:54:48;;;;;;;2.05;1.83;;;;;;;;;;5016842;28;20538;-57
2021/12/30 00:57:13;;;;;;;1.92;1.83;;;;;;;;;;5020742;28;20221;-57
2021/12/30 00:59:38;;;;;;;2.22;2.13;;;;;;;;;;5011103;28;20186;-57
2021/12/30 01:02:03;;;;;;;2.03;1.92;;;;;;;;;;5017841;28;20193;-58
2021/12/30 01:04:29;;;;;;;2.20;2.10;;;;;;;;;;5015811;28;20203;-57
2021/12/30 01:06:54;;;;;;;2.40;2.20;;;;;;;;;;5014197;28;20179;-58
2021/12/30 01:09:19;;;;;;;2.67;2.10;;;;;;;;;;5008584;28;20225;-57
2021/12/30 01:11:45;;;;;;;2.00;1.90;;;;;;;;;;5005304;28;20171;-57
2021/12/30 01:14:17;;;;;;;2.10;2.00;;;;;;;;;;4996236;28;20233;-57
2021/12/30 01:16:46;;;;;;;2.75;2.28;;;;;;;;;;5017599;28;20190;-56
2021/12/30 01:21:40;;;;;;;2.38;2.17;;;;;;;;;;5018382;28;20179;-56
2021/12/30 01:24:06;;;;;;;2.55;2.45;;;;;;;;;;5010539;28;20186;-56
2021/12/30 01:26:31;;;;;;;2.63;2.42;;;;;;;;;;5022384;28;20178;-57
2021/12/30 01:28:57;;;;;;;2.25;2.15;;;;;;;;;;5014423;28;20219;-57
2021/12/30 01:31:22;;;;;;;2.22;2.08;;;;;;;;;;5013693;28;20555;-57
2021/12/30 01:33:47;;;;;;;2.35;2.15;;;;;;;;;;5003836;28;20262;-57
2021/12/30 01:36:13;;;;;;;2.30;2.20;;;;;;;;;;4995882;28;20190;-57
2021/12/30 01:38:39;;;;;;;2.40;2.30;;;;;;;;;;5019481;28;20189;-57
2021/12/30 01:41:05;;;;;;;1.95;1.85;;;;;;;;;;5016083;28;20519;-57
2021/12/30 01:43:32;;;;;;;2.40;2.20;;;;;;;;;;5018297;28;20290;-57
2021/12/30 01:45:58;;;;;;;2.55;2.45;;;;;;;;;;5017337;28;20194;-57
2021/12/30 01:48:23;;;;;;;1.80;1.70;;;;;;;;;;5012624;28;20197;-57
2021/12/30 01:50:50;;;;;;;2.00;1.90;;;;;;;;;;5009764;28;20174;-57
2021/12/30 01:53:15;;;;;;;2.00;1.90;;;;;;;;;;5021502;28;20844;-57
2021/12/30 01:55:41;;;;;;;2.40;2.20;;;;;;;;;;4995046;28;20282;-57
2021/12/30 01:58:07;;;;;;;1.90;1.80;;;;;;;;;;5016136;28;20201;-57
2021/12/30 02:00:36;;;;;;;2.08;1.98;;;;;;;;;;5022575;28;20189;-57
2021/12/30 02:03:02;;;;;;;2.42;2.28;;;;;;;;;;5029269;28;20186;-57
2021/12/30 02:05:28;;;;;;;2.67;2.47;;;;;;;;;;5024407;28;20670;-57
2021/12/30 02:07:53;;;;;;;2.70;2.10;;;;;;;;;;5012848;28;20176;-58
2021/12/30 02:10:19;;;;;;;1.73;1.63;;;;;;;;;;5011496;28;20632;-58
2021/12/30 02:12:46;;;;;;;2.17;2.08;;;;;;;;;;5020768;28;20174;-58
2021/12/30 02:15:12;;;;;;;2.05;1.65;;;;;;;;;;5012352;28;20182;-57
2021/12/30 02:17:40;;;;;;;1.80;1.70;;;;;;;;;;5017511;28;20248;-57
2021/12/30 02:20:07;;;;;;;1.85;1.75;;;;;;;;;;5020683;28;20277;-57
2021/12/30 02:22:32;;;;;;;2.10;2.00;;;;;;;;;;5024538;28;20187;-57
2021/12/30 02:24:59;;;;;;;2.53;2.33;;;;;;;;;;5026524;28;20671;-58
2021/12/30 02:27:25;;;;;;;2.00;1.90;;;;;;;;;;5018469;28;20175;-58
2021/12/30 02:29:50;;;;;;;2.35;2.13;;;;;;;;;;5017017;28;20179;-58
2021/12/30 02:32:15;;;;;;;2.25;2.05;;;;;;;;;;5018423;28;20187;-58
2021/12/30 02:34:41;;;;;;;2.20;1.80;;;;;;;;;;5019529;28;20221;-57
2021/12/30 02:37:07;;;;;;;1.77;1.70;;;;;;;;;;5021314;28;20186;-57
2021/12/30 02:39:32;;;;;;;2.00;1.90;;;;;;;;;;5019131;28;20412;-57
2021/12/30 02:41:57;;;;;;;1.98;1.88;;;;;;;;;;5022439;28;20259;-57
2021/12/30 02:44:23;;;;;;;1.80;1.70;;;;;;;;;;5025008;28;20288;-57
2021/12/30 02:46:51;;;;;;;1.70;1.60;;;;;;;;;;5025166;28;20175;-57
2021/12/30 02:49:16;;;;;;;1.40;1.40;;;;;;;;;;5017203;28;20205;-57
2021/12/30 02:51:42;;;;;;;1.90;1.80;;;;;;;;;;5022030;28;20723;-57
2021/12/30 02:54:07;;;;;;;1.40;1.40;;;;;;;;;;5013173;28;20201;-57
2021/12/30 02:56:32;;;;;;;1.90;1.80;;;;;;;;;;5021251;28;20644;-57
2021/12/30 02:58:58;;;;;;;1.40;1.40;;;;;;;;;;4998032;28;20171;-59
2021/12/30 03:01:27;;;;;;;2.63;2.00;;;;;;;;;;4981860;28;20240;-56
2021/12/30 03:03:52;;;;;;;1.88;1.77;;;;;;;;;;5023884;28;20174;-56
2021/12/30 03:06:18;;;;;;;1.70;1.60;;;;;;;;;;5019014;28;20265;-56
2021/12/30 03:08:44;;;;;;;1.80;1.70;;;;;;;;;;5019651;28;20182;-57
2021/12/30 03:11:10;;;;;;;1.75;1.65;;;;;;;;;;5012747;28;20194;-57
2021/12/30 03:13:36;;;;;;;1.80;1.70;;;;;;;;;;5022735;28;20186;-57
2021/12/30 03:16:05;;;;;;;1.50;1.50;;;;;;;;;;5016125;28;20179;-57
2021/12/30 03:18:32;;;;;;;1.52;1.50;;;;;;;;;;5008467;28;20680;-57
2021/12/30 03:20:57;;;;;;;1.55;1.45;;;;;;;;;;5017757;28;20690;-57
2021/12/30 03:23:23;;;;;;;1.70;1.60;;;;;;;;;;5019672;28;20174;-57
2021/12/30 03:25:48;;;;;;;1.80;1.70;;;;;;;;;;5021002;28;20199;-57
2021/12/30 03:28:14;;;;;;;2.28;2.08;;;;;;;;;;5015411;28;20241;-57
2021/12/30 03:30:39;;;;;;;3.75;1.95;;;;;;;;;;5015060;28;20199;-57
2021/12/30 03:33:04;;;;;;;1.30;1.27;;;;;;;;;;5020448;28;20669;-57
2021/12/30 03:35:29;;;;;;;1.63;1.60;;;;;;;;;;5022040;28;20179;-57
2021/12/30 03:37:56;;;;;;;1.80;1.70;;;;;;;;;;5018749;28;20667;-57
2021/12/30 03:40:22;;;;;;;1.38;1.35;;;;;;;;;;5019842;28;20288;-57
2021/12/30 03:42:47;;;;;;;2.17;1.55;;;;;;;;;;5017990;28;20869;-57
2021/12/30 03:45:13;;;;;;;1.67;1.58;;;;;;;;;;5022149;28;20584;-57
2021/12/30 03:47:41;;;;;;;2.72;1.85;;;;;;;;;;5015895;28;20182;-57
2021/12/30 03:50:08;;;;;;;1.63;1.52;;;;;;;;;;5018409;28;20599;-57
2021/12/30 03:52:33;;;;;;;1.55;1.50;;;;;;;;;;5025318;28;20210;-57
2021/12/30 03:54:59;;;;;;;2.08;1.95;;;;;;;;;;5014936;28;20680;-57
2021/12/30 03:57:24;;;;;;;1.58;1.48;;;;;;;;;;5020590;28;20695;-58
2021/12/30 03:59:49;;;;;;;1.70;1.60;;;;;;;;;;5011371;28;20182;-57
2021/12/30 04:02:15;;;;;;;1.90;1.80;;;;;;;;;;4997117;28;20191;-57
2021/12/30 04:04:40;;;;;;;1.60;1.50;;;;;;;;;;4998746;28;20768;-57
2021/12/30 04:07:05;;;;;;;1.20;1.20;;;;;;;;;;5010051;28;20593;-57
2021/12/30 04:09:31;;;;;;;1.42;1.33;;;;;;;;;;5021852;28;20262;-57
2021/12/30 04:11:56;;;;;;;1.30;1.20;;;;;;;;;;5016701;28;20170;-57
2021/12/30 04:14:26;;;;;;;1.10;1.10;;;;;;;;;;5019426;28;20832;-57
2021/12/30 04:16:51;;;;;;;1.80;1.73;;;;;;;;;;5021823;28;20542;-57
2021/12/30 04:19:16;;;;;;;1.70;1.60;;;;;;;;;;5017616;28;20240;-57
2021/12/30 04:21:41;;;;;;;1.85;1.75;;;;;;;;;;5012028;28;20669;-57
2021/12/30 04:24:07;;;;;;;2.05;1.85;;;;;;;;;;4996366;28;20175;-57
2021/12/30 04:26:32;;;;;;;1.83;1.73;;;;;;;;;;4998937;28;20211;-57
2021/12/30 04:28:58;;;;;;;1.60;1.50;;;;;;;;;;5011905;28;20678;-57
2021/12/30 04:31:23;;;;;;;3.60;2.08;;;;;;;;;;5014314;28;20191;-57
2021/12/30 04:33:49;;;;;;;1.60;1.50;;;;;;;;;;5018519;28;20241;-57
2021/12/30 04:36:14;;;;;;;2.17;2.08;;;;;;;;;;5006281;28;20209;-57
2021/12/30 04:38:39;;;;;;;2.00;1.90;;;;;;;;;;5026225;28;20175;-57
2021/12/30 04:41:05;;;;;;;1.80;1.70;;;;;;;;;;5014131;28;20195;-57
2021/12/30 04:43:31;;;;;;;2.20;2.03;;;;;;;;;;5001479;28;20589;-57
2021/12/30 04:45:58;;;;;;;3.88;1.30;;;;;;;;;;4979376;28;20198;-56
2021/12/30 04:48:23;;;;;;;1.65;1.55;;;;;;;;;;5021045;28;20548;-57
2021/12/30 04:50:49;;;;;;;2.13;1.80;;;;;;;;;;5025423;28;20185;-57
2021/12/30 04:53:15;;;;;;;2.08;1.63;;;;;;;;;;5010942;28;20195;-57
2021/12/30 04:55:40;;;;;;;1.92;1.83;;;;;;;;;;5016813;28;20730;-57
2021/12/30 04:58:06;;;;;;;1.90;1.80;;;;;;;;;;5020761;28;20277;-57
2021/12/30 05:00:32;;;;;;;1.65;1.58;;;;;;;;;;5013905;28;20261;-57
2021/12/30 05:03:11;;;;;;;1.52;1.42;;;;;;;;;;5020562;28;20186;-57
2021/12/30 05:05:38;;;;;;;1.70;1.60;;;;;;;;;;5015415;28;20746;-57
2021/12/30 05:08:03;;;;;;;3.58;1.80;;;;;;;;;;4997652;28;20273;-57
2021/12/30 05:10:28;;;;;;;1.90;1.80;;;;;;;;;;5003200;28;20917;-57
2021/12/30 05:12:54;;;;;;;2.00;1.90;;;;;;;;;;5014305;28;20264;-57
2021/12/30 05:15:19;;;;;;;8.25;2.40;;;;;;;;;;5018699;28;20190;-57
2021/12/30 05:17:44;;;;;;;1.80;1.70;;;;;;;;;;5018725;28;20183;-57
2021/12/30 05:20:12;;;;;;;2.00;1.90;;;;;;;;;;5017838;28;20187;-57
2021/12/30 05:22:37;;;;;;;1.90;1.80;;;;;;;;;;5013727;28;20191;-57
2021/12/30 05:25:03;;;;;;;1.95;1.85;;;;;;;;;;5017567;28;20691;-59
2021/12/30 05:27:28;;;;;;;2.40;2.20;;;;;;;;;;5016076;28;20182;-57
2021/12/30 05:29:53;;;;;;;2.88;2.67;;;;;;;;;;5017468;28;20185;-57
2021/12/30 05:32:18;;;;;;;3.15;2.88;;;;;;;;;;5019459;28;20199;-57
2021/12/30 05:34:43;;;;;;;2.72;2.55;;;;;;;;;;5012227;28;20222;-56
2021/12/30 05:37:09;;;;;;;3.97;3.33;;;;;;;;;;5019550;28;20185;-57
2021/12/30 05:39:39;;;;;;;4.25;3.60;;;;;;;;;;5014114;28;20179;-57
2021/12/30 05:42:05;;;;;;;4.43;3.97;;;;;;;;;;5015414;28;20651;-56
2021/12/30 05:44:30;;;;;;;3.58;3.28;;;;;;;;;;5018047;28;20293;-56
2021/12/30 05:46:55;;;;;;;2.97;2.78;;;;;;;;;;4996742;28;20839;-57
2021/12/30 05:49:20;;;;;;;4.18;3.33;;;;;;;;;;4996581;28;20631;-58
2021/12/30 05:51:45;;;;;;;4.70;3.88;;;;;;;;;;5001626;28;20175;-57
2021/12/30 05:54:11;;;;;;;2.80;2.60;;;;;;;;;;5018157;28;20198;-58
2021/12/30 05:56:36;;;;;;;3.45;3.10;;;;;;;;;;5021756;28;20171;-57
2021/12/30 05:59:01;;;;;;;3.03;2.80;;;;;;;;;;5024178;28;20182;-58
2021/12/30 06:01:26;;;;;;;4.90;4.40;;;;;;;;;;5021307;28;20261;-58
2021/12/30 06:03:52;;;;;;;6.20;4.10;;;;;;;;;;5014794;28;20248;-57
2021/12/30 06:06:17;;;;;;;4.30;3.90;;;;;;;;;;5008889;28;20234;-57
2021/12/30 06:08:42;;;;;;;7.05;4.43;;;;;;;;;;4995089;28;20194;-58
2021/12/30 06:11:07;;;;;;;4.80;4.40;;;;;;;;;;4997237;28;20266;-57
2021/12/30 06:13:33;;;;;;;5.75;4.93;;;;;;;;;;5005601;28;20175;-58
2021/12/30 06:15:58;;;;;;;8.32;6.38;;;;;;;;;;5015252;28;20190;-58
2021/12/30 06:18:23;;;;;;;7.25;6.38;;;;;;;;;;5025199;28;20255;-58
2021/12/30 06:20:49;;;;;;;9.35;5.90;;;;;;;;;;5017771;28;20182;-58
2021/12/30 06:23:14;;;;;;;9.48;7.75;;;;;;;;;;5016680;28;20182;-58
2021/12/30 06:25:39;;;;;;;10.75;7.97;;;;;;;;;;5007326;28;20955;-57
2021/12/30 06:28:04;;;;;;;9.95;7.95;;;;;;;;;;5003478;28;20684;-57
2021/12/30 06:30:30;;;;;;;12.52;10.32;;;;;;;;;;4995437;28;20377;-58
2021/12/30 06:32:55;;;;;;;21.42;13.73;;;;;;;;;;4997672;28;20179;-58
2021/12/30 06:35:20;;;;;;;14.38;10.63;;;;;;;;;;5009981;28;20238;-57
2021/12/30 06:37:46;;;;;;;17.60;13.43;;;;;;;;;;5017549;28;20633;-58
2021/12/30 06:40:12;;;;;;;16.95;11.15;;;;;;;;;;5014849;28;20671;-58
2021/12/30 06:42:37;;;;;;;11.38;8.00;;;;;;;;;;5024033;28;20234;-58
2021/12/30 06:45:03;;;;;;;10.68;8.27;;;;;;;;;;5011238;28;20210;-57
2021/12/30 06:47:28;;;;;;;9.68;7.53;;;;;;;;;;5023057;28;20174;-58
2021/12/30 06:50:00;;;;;;;33.72;23.30;;;;;;;;;;5019460;28;20194;-58
2021/12/30 06:52:25;;;;;;;27.10;15.70;;;;;;;;;;5019135;28;20186;-58
2021/12/30 06:54:50;;;;;;;22.05;13.82;;;;;;;;;;5022191;28;20190;-58
2021/12/30 06:57:16;;;;;;;16.23;10.15;;;;;;;;;;5023630;28;20266;-57
2021/12/30 06:59:41;;;;;;;11.00;8.20;;;;;;;;;;5023633;28;20651;-58
2021/12/30 07:02:06;;;;;;;7.85;5.80;;;;;;;;;;5026948;28;20241;-58
2021/12/30 07:04:32;;;;;;;7.47;5.75;;;;;;;;;;5017080;28;20203;-58
2021/12/30 07:06:57;;;;;;;3.65;3.35;;;;;;;;;;5025685;28;20758;-57
2021/12/30 07:09:23;;;;;;;11.40;6.43;;;;;;;;;;5016381;28;20187;-57
2021/12/30 07:11:49;;;;;;;13.57;8.25;;;;;;;;;;4998384;28;20649;-58
2021/12/30 07:14:16;;;;;;;5.13;4.20;;;;;;;;;;4999681;28;20555;-57
2021/12/30 07:16:41;;;;;;;4.10;3.55;;;;;;;;;;5013910;28;20670;-57
2021/12/30 07:19:06;;;;;;;6.30;5.07;;;;;;;;;;5018406;28;20179;-57
2021/12/30 07:21:31;;;;;;;13.82;7.70;;;;;;;;;;5017223;28;20577;-57
2021/12/30 07:23:56;;;;;;;10.00;6.22;;;;;;;;;;5018591;28;20182;-57
2021/12/30 07:26:22;;;;;;;4.75;4.22;;;;;;;;;;5028453;28;20289;-57
2021/12/30 07:28:47;;;;;;;9.02;6.43;;;;;;;;;;5027115;28;20642;-57
2021/12/30 07:31:13;;;;;;;10.23;5.65;;;;;;;;;;5011887;28;20598;-58
2021/12/30 07:33:38;;;;;;;6.72;4.13;;;;;;;;;;4998448;28;20190;-58
2021/12/30 07:36:03;;;;;;;4.30;3.90;;;;;;;;;;5000356;28;20561;-57
2021/12/30 07:38:29;;;;;;;5.28;4.88;;;;;;;;;;5015550;28;20178;-58
2021/12/30 07:40:54;;;;;;;4.75;4.07;;;;;;;;;;5028384;28;20667;-57
2021/12/30 07:43:19;;;;;;;4.07;3.75;;;;;;;;;;5016485;28;20218;-58
2021/12/30 07:45:44;;;;;;;4.90;4.60;;;;;;;;;;5012742;28;20225;-57
2021/12/30 07:48:10;;;;;;;2.95;2.75;;;;;;;;;;5026197;28;20604;-57
2021/12/30 07:50:35;;;;;;;5.80;5.30;;;;;;;;;;5016030;28;20211;-58
2021/12/30 07:53:00;;;;;;;2.40;2.25;;;;;;;;;;5018177;28;20206;-57
2021/12/30 07:55:26;;;;;;;5.18;4.65;;;;;;;;;;5017989;28;20403;-57
2021/12/30 07:57:55;;;;;;;4.10;3.70;;;;;;;;;;5020495;28;20182;-57
2021/12/30 08:00:21;;;;;;;2.67;2.55;;;;;;;;;;5015454;28;20175;-57
2021/12/30 08:02:46;;;;;;;3.50;3.20;;;;;;;;;;5019432;28;20236;-58
2021/12/30 08:05:12;;;;;;;2.42;2.22;;;;;;;;;;5021536;28;20731;-57
2021/12/30 08:07:38;;;;;;;2.20;2.00;;;;;;;;;;5024862;28;20175;-57
2021/12/30 08:10:03;;;;;;;2.80;2.60;;;;;;;;;;5019428;28;20627;-57
2021/12/30 08:12:28;;;;;;;4.75;4.25;;;;;;;;;;5010491;28;20262;-57
2021/12/30 08:14:54;;;;;;;6.55;5.30;;;;;;;;;;4996602;28;20222;-57
2021/12/30 08:17:19;;;;;;;7.72;6.45;;;;;;;;;;4998579;28;20187;-57
2021/12/30 08:19:44;;;;;;;2.72;2.53;;;;;;;;;;5007521;28;20569;-57
2021/12/30 08:22:10;;;;;;;2.72;2.53;;;;;;;;;;5010990;28;20190;-57
2021/12/30 08:24:35;;;;;;;1.95;1.85;;;;;;;;;;5019940;28;20194;-57
2021/12/30 08:27:01;;;;;;;2.72;2.53;;;;;;;;;;5013113;28;20447;-57
2021/12/30 08:29:26;;;;;;;2.63;2.42;;;;;;;;;;5018979;28;20213;-57
2021/12/30 08:31:54;;;;;;;3.15;2.85;;;;;;;;;;5008439;28;20199;-57
2021/12/30 08:34:20;;;;;;;2.88;2.35;;;;;;;;;;5002721;28;20674;-57
2021/12/30 08:36:46;;;;;;;2.50;2.40;;;;;;;;;;5016333;28;20609;-57
2021/12/30 08:39:11;;;;;;;3.25;3.05;;;;;;;;;;5018535;28;20179;-56
2021/12/30 08:41:37;;;;;;;2.45;2.28;;;;;;;;;;5016901;28;20261;-57
2021/12/30 08:44:02;;;;;;;4.20;3.10;;;;;;;;;;5021548;28;20193;-57
2021/12/30 08:46:28;;;;;;;4.57;3.90;;;;;;;;;;5015274;28;20218;-57
2021/12/30 08:48:53;;;;;;;5.25;4.38;;;;;;;;;;5017394;28;20628;-57
2021/12/30 08:51:18;;;;;;;3.05;2.85;;;;;;;;;;5013246;28;20186;-56
2021/12/30 08:53:43;;;;;;;2.70;2.50;;;;;;;;;;5019623;28;20194;-56
2021/12/30 08:56:12;;;;;;;2.60;2.40;;;;;;;;;;4998316;28;20190;-56
2021/12/30 08:58:37;;;;;;;2.00;1.90;;;;;;;;;;5016378;28;20189;-56
2021/12/30 09:01:02;;;;;;;2.78;2.58;;;;;;;;;;5002577;28;20993;-56
2021/12/30 09:03:28;;;;;;;2.13;2.03;;;;;;;;;;5010375;28;20206;-57
2021/12/30 09:05:53;;;;;;;1.98;1.88;;;;;;;;;;5008291;28;20285;-56
2021/12/30 09:08:18;;;;;;;2.45;2.28;;;;;;;;;;5018053;28;20194;-56
2021/12/30 09:10:46;;;;;;;5.43;4.90;;;;;;;;;;5010957;28;20175;-55
2021/12/30 09:13:11;;;;;;;7.88;5.82;;;;;;;;;;5017851;28;20171;-56
2021/12/30 09:15:37;;;;;;;7.15;6.45;;;;;;;;;;5012807;28;20652;-56
2021/12/30 09:18:03;;;;;;;9.82;7.95;;;;;;;;;;4995887;28;20606;-56
2021/12/30 09:20:28;;;;;;;10.70;9.65;;;;;;;;;;4997627;28;20191;-56
2021/12/30 09:22:54;;;;;;;14.70;10.90;;;;;;;;;;5012739;28;20232;-56
2021/12/30 09:25:22;;;;;;;13.43;10.95;;;;;;;;;;5015846;28;20588;-55
2021/12/30 09:27:48;;;;;;;9.02;7.78;;;;;;;;;;5019432;28;20277;-56
2021/12/30 09:30:14;;;;;;;14.85;11.43;;;;;;;;;;5021328;28;21107;-56
2021/12/30 09:32:40;;;;;;;11.38;10.13;;;;;;;;;;5014282;28;20198;-56
2021/12/30 09:35:05;;;;;;;32.00;21.38;;;;;;;;;;5019732;28;20546;-56
2021/12/30 09:37:31;;;;;;;15.52;11.13;;;;;;;;;;5018645;28;20190;-56
2021/12/30 09:39:58;;;;;;;18.35;11.88;;;;;;;;;;5016355;28;20186;-56
2021/12/30 09:42:24;;;;;;;17.45;11.93;;;;;;;;;;5017961;28;20629;-56
2021/12/30 09:44:49;;;;;;;19.65;13.18;;;;;;;;;;5022275;28;20227;-56
2021/12/30 09:47:14;;;;;;;13.07;10.10;;;;;;;;;;5023132;28;20216;-57
2021/12/30 09:49:39;;;;;;;12.10;8.93;;;;;;;;;;5011399;28;20236;-56
2021/12/30 09:52:05;;;;;;;13.82;9.93;;;;;;;;;;5017374;28;20179;-57
2021/12/30 09:54:30;;;;;;;9.27;7.97;;;;;;;;;;5017702;28;20309;-56
2021/12/30 09:56:56;;;;;;;9.65;7.97;;;;;;;;;;5015649;28;20584;-56
2021/12/30 09:59:23;;;;;;;10.65;8.57;;;;;;;;;;5016677;28;20189;-58
2021/12/30 10:01:49;;;;;;;12.68;8.95;;;;;;;;;;5015988;28;20210;-57
2021/12/30 10:04:14;;;;;;;12.75;10.05;;;;;;;;;;5020403;28;20718;-56
2021/12/30 10:06:47;;;;;;;17.27;11.48;;;;;;;;;;5011581;28;20190;-56
2021/12/30 10:09:15;;;;;;;18.45;12.27;;;;;;;;;;5012641;28;20179;-58
2021/12/30 10:11:51;;;;;;;18.02;13.00;;;;;;;;;;5020574;28;20181;-56
2021/12/30 10:14:26;;;;;;;13.77;11.52;;;;;;;;;;5014336;28;20186;-56
2021/12/30 10:17:11;;;;;;;18.63;13.07;;;;;;;;;;5018482;28;20764;-56
2021/12/30 10:19:37;;;;;;;26.92;16.92;;;;;;;;;;5013796;28;20171;-56
2021/12/30 10:22:07;;;;;;;21.98;14.40;;;;;;;;;;5016180;28;20173;-57
2021/12/30 10:24:33;;;;;;;16.45;12.90;;;;;;;;;;5021613;28;20193;-56
2021/12/30 10:26:58;;;;;;;16.63;12.52;;;;;;;;;;5023778;28;20175;-56
2021/12/30 10:29:27;;;;;;;10.77;7.65;;;;;;;;;;5023323;28;20171;-56
2021/12/30 10:31:53;;;;;;;11.30;8.63;;;;;;;;;;5027346;28;20200;-58
2021/12/30 10:34:19;;;;;;;6.45;5.85;;;;;;;;;;5010593;28;20172;-56
2021/12/30 10:36:46;;;;;;;4.70;3.50;;;;;;;;;;5013434;28;20561;-58
2021/12/30 10:39:14;;;;;;;3.95;3.15;;;;;;;;;;5024783;28;20265;-57
2021/12/30 10:41:39;;;;;;;10.18;7.22;;;;;;;;;;5018896;28;20236;-57
2021/12/30 10:44:05;;;;;;;6.55;5.00;;;;;;;;;;5019943;28;20286;-57
2021/12/30 10:46:30;;;;;;;8.95;5.32;;;;;;;;;;5006852;28;20222;-58
2021/12/30 10:49:05;;;;;;;8.07;5.55;;;;;;;;;;5015129;28;20528;-57
2021/12/30 10:51:30;;;;;;;4.07;2.85;;;;;;;;;;5013327;28;20206;-56
2021/12/30 10:53:56;;;;;;;11.80;8.85;;;;;;;;;;5016317;28;20242;-56
2021/12/30 10:56:32;;;;;;;5.88;4.95;;;;;;;;;;5021788;28;20214;-56
2021/12/30 10:59:18;;;;;;;4.90;4.20;;;;;;;;;;5025507;28;20261;-57
2021/12/30 11:01:44;;;;;;;1.00;1.00;;;;;;;;;;4992907;28;20780;-56
2021/12/30 11:04:10;;;;;;;1.60;1.50;;;;;;;;;;5017998;28;20183;-56
2021/12/30 11:06:36;;;;;;;1.48;1.45;;;;;;;;;;5020504;28;20194;-57
2021/12/30 11:09:09;;;;;;;1.75;1.65;;;;;;;;;;5027411;28;20269;-55
2021/12/30 11:11:39;;;;;;;1.27;1.23;;;;;;;;;;5022324;28;20198;-56
2021/12/30 11:14:05;;;;;;;6.15;5.72;;;;;;;;;;5011184;28;20178;-56
2021/12/30 11:16:31;;;;;;;2.55;1.58;;;;;;;;;;5017409;28;20316;-56
2021/12/30 11:18:56;;;;;;;1.17;1.17;;;;;;;;;;5020214;28;20262;-56
2021/12/30 11:21:38;;;;;;;0.85;0.85;;;;;;;;;;5016172;28;20179;-56
2021/12/30 11:24:03;;;;;;;1.48;1.20;;;;;;;;;;5017252;28;20408;-57
2021/12/30 11:26:30;;;;;;;1.20;1.10;;;;;;;;;;5019016;28;20646;-57
2021/12/30 11:28:56;;;;;;;2.60;1.67;;;;;;;;;;5017446;28;20183;-57
2021/12/30 11:31:21;;;;;;;6.30;4.43;;;;;;;;;;5024954;28;20182;-56
2021/12/30 11:33:47;;;;;;;3.00;2.30;;;;;;;;;;5018939;28;20204;-56
2021/12/30 11:36:12;;;;;;;1.88;1.77;;;;;;;;;;5020351;28;20198;-59
2021/12/30 11:38:37;;;;;;;1.52;1.50;;;;;;;;;;5015943;28;20179;-56
2021/12/30 11:41:03;;;;;;;2.25;1.67;;;;;;;;;;5016663;28;20194;-56
2021/12/30 11:43:45;;;;;;;1.63;1.52;;;;;;;;;;5008717;28;20504;-56
2021/12/30 11:46:29;;;;;;;2.47;2.28;;;;;;;;;;5017457;28;20218;-56
2021/12/30 11:48:56;;;;;;;2.88;2.53;;;;;;;;;;5020706;28;20182;-56
2021/12/30 11:51:23;;;;;;;6.55;4.15;;;;;;;;;;4997348;28;20189;-56
2021/12/30 11:53:50;;;;;;;16.45;8.35;;;;;;;;;;5014633;28;20202;-56
2021/12/30 11:56:22;;;;;;;20.88;10.73;;;;;;;;;;5017300;28;20706;-57
2021/12/30 11:58:55;;;;;;;20.05;11.98;;;;;;;;;;5009064;28;20194;-58
2021/12/30 12:01:24;;;;;;;29.45;15.55;;;;;;;;;;5016972;28;20186;-57
2021/12/30 12:03:52;;;;;;;18.95;12.40;;;;;;;;;;5016278;28;20555;-57
2021/12/30 12:06:34;;;;;;;25.33;16.00;;;;;;;;;;5016079;28;20202;-56
2021/12/30 12:09:00;;;;;;;23.73;15.82;;;;;;;;;;5018588;28;20185;-55
2021/12/30 12:11:26;;;;;;;25.00;14.40;;;;;;;;;;5023552;28;20570;-55
2021/12/30 12:13:56;;;;;;;18.15;11.20;;;;;;;;;;5014227;28;20171;-56
2021/12/30 12:16:47;;;;;;;53.35;34.90;;;;;;;;;;5023909;28;21105;-56
2021/12/30 12:19:13;;;;;;;14.65;10.82;;;;;;;;;;5017464;28;20603;-56
2021/12/30 12:21:38;;;;;;;17.73;10.70;;;;;;;;;;5021892;28;20264;-56
2021/12/30 12:24:28;;;;;;;12.45;10.27;;;;;;;;;;5021301;28;20676;-56
2021/12/30 12:26:58;;;;;;;13.73;9.27;;;;;;;;;;4980447;28;20453;-56
2021/12/30 12:29:25;;;;;;;12.65;9.75;;;;;;;;;;5017231;28;20178;-56
2021/12/30 12:31:58;;;;;;;19.23;15.30;;;;;;;;;;5022053;28;20589;-57
2021/12/30 12:34:34;;;;;;;13.73;10.57;;;;;;;;;;5012555;28;20203;-57
2021/12/30 12:36:59;;;;;;;11.60;8.40;;;;;;;;;;5013717;28;20189;-57
2021/12/30 12:39:37;;;;;;;9.40;7.88;;;;;;;;;;5014455;28;20183;-57
2021/12/30 12:42:04;;;;;;;6.05;4.35;;;;;;;;;;5017038;28;20186;-57
2021/12/30 12:44:29;;;;;;;5.75;5.10;;;;;;;;;;5017226;28;20213;-56
2021/12/30 12:46:55;;;;;;;6.57;5.00;;;;;;;;;;5005625;28;20190;-56
2021/12/30 12:49:32;;;;;;;6.22;4.40;;;;;;;;;;5016119;28;20218;-57
2021/12/30 12:51:57;;;;;;;7.30;5.47;;;;;;;;;;5018882;28;20235;-56
2021/12/30 12:54:32;;;;;;;6.38;5.78;;;;;;;;;;5020897;28;20213;-56
2021/12/30 12:57:04;;;;;;;5.90;5.40;;;;;;;;;;4998415;28;20265;-55
2021/12/30 12:59:33;;;;;;;6.72;5.07;;;;;;;;;;5021588;28;20171;-55
2021/12/30 13:01:58;;;;;;;9.60;7.80;;;;;;;;;;5018690;28;20241;-57
2021/12/30 13:04:24;;;;;;;12.48;10.48;;;;;;;;;;5010172;28;20187;-57
2021/12/30 13:06:49;;;;;;;23.95;17.15;;;;;;;;;;5017013;28;20185;-57
2021/12/30 13:09:15;;;;;;;26.35;19.65;;;;;;;;;;4996483;28;20282;-57
2021/12/30 13:11:45;;;;;;;21.40;15.38;;;;;;;;;;4997624;28;20183;-57
2021/12/30 13:14:19;;;;;;;16.65;13.77;;;;;;;;;;5014659;28;20179;-57
2021/12/30 13:16:46;;;;;;;21.52;13.63;;;;;;;;;;5010534;28;20181;-57
2021/12/30 13:19:18;;;;;;;19.55;14.30;;;;;;;;;;5012554;28;20230;-57
2021/12/30 13:21:45;;;;;;;19.20;13.80;;;;;;;;;;5018600;28;20178;-57
2021/12/30 13:24:25;;;;;;;18.10;12.52;;;;;;;;;;5009941;28;20186;-57
2021/12/30 13:26:51;;;;;;;31.58;20.27;;;;;;;;;;5013617;28;20186;-56
2021/12/30 13:29:22;;;;;;;22.52;14.23;;;;;;;;;;5002450;28;20182;-57
2021/12/30 13:31:58;;;;;;;19.88;12.57;;;;;;;;;;5015943;28;20198;-57
2021/12/30 13:34:23;;;;;;;12.93;9.57;;;;;;;;;;5019636;28;20217;-56
2021/12/30 13:36:49;;;;;;;13.60;8.70;;;;;;;;;;5019578;28;20234;-57
2021/12/30 13:39:15;;;;;;;10.00;7.53;;;;;;;;;;5012272;28;20186;-56
2021/12/30 13:41:50;;;;;;;17.65;10.25;;;;;;;;;;5007163;28;20258;-56
2021/12/30 13:44:16;;;;;;;16.58;9.93;;;;;;;;;;5025965;28;20169;-56
2021/12/30 13:46:41;;;;;;;14.98;9.55;;;;;;;;;;5015267;28;20201;-57
2021/12/30 13:49:06;;;;;;;16.88;11.27;;;;;;;;;;5013123;28;20690;-58
2021/12/30 13:51:32;;;;;;;21.83;14.65;;;;;;;;;;5014573;28;20179;-57
2021/12/30 13:53:58;;;;;;;14.85;11.77;;;;;;;;;;4998521;28;20232;-55
2021/12/30 13:56:24;;;;;;;23.98;16.90;;;;;;;;;;5023483;28;20563;-55
2021/12/30 13:58:50;;;;;;;23.85;17.05;;;;;;;;;;5019410;28;20547;-57
2021/12/30 14:01:24;;;;;;;25.83;17.08;;;;;;;;;;5025976;28;20209;-57
2021/12/30 14:03:53;;;;;;;24.08;16.77;;;;;;;;;;5015529;28;20701;-56
2021/12/30 14:06:19;;;;;;;25.48;17.45;;;;;;;;;;5026178;28;20598;-57
2021/12/30 14:08:51;;;;;;;28.17;19.10;;;;;;;;;;5010737;28;20681;-56
2021/12/30 14:11:16;;;;;;;25.58;18.33;;;;;;;;;;5024031;28;20170;-56
2021/12/30 14:13:44;;;;;;;34.88;24.15;;;;;;;;;;5019552;28;20177;-57
2021/12/30 14:16:35;;;;;;;33.85;22.88;;;;;;;;;;5021485;28;20277;-59
2021/12/30 14:19:01;;;;;;;28.25;18.67;;;;;;;;;;5015903;28;20195;-57
2021/12/30 14:21:27;;;;;;;43.70;30.83;;;;;;;;;;5022618;28;20190;-56
2021/12/30 14:23:53;;;;;;;19.17;12.73;;;;;;;;;;5021072;28;20183;-56
2021/12/30 14:26:19;;;;;;;19.02;13.13;;;;;;;;;;5018041;28;20202;-57
2021/12/30 14:28:53;;;;;;;18.23;12.82;;;;;;;;;;5016269;28;20648;-58
2021/12/30 14:31:23;;;;;;;15.88;11.18;;;;;;;;;;5022100;28;20222;-57
2021/12/30 14:34:00;;;;;;;15.77;11.38;;;;;;;;;;5017865;28;20186;-57
2021/12/30 14:36:25;;;;;;;15.27;10.95;;;;;;;;;;5002381;28;20591;-57